Time;durP1;ratioP1;P1;durP2;ratioP2;P2;SDS_P1;SDS_P2;PMS_P1;PMS_P2;Temp;Humidity;BMP_temperature;BMP_pressure;BME280_temperature;BME280_humidity;BME280_pressure;Samples;Min_cycle;Max_cycle;Signal;HPM_P1;HPM_P2
2024/04/08 18:24:06;;;;;;;;;;;15.80;69.60;;;;;;5566772;25;19930;-94
2024/04/08 18:26:32;;;;;;;;;;;15.80;71.00;;;;;;5515665;25;19959;-95
2024/04/08 18:29:00;;;;;;;;;;;15.90;72.00;;;;;;5514233;25;20291;-95
2024/04/08 18:31:26;;;;;;;;;;;16.00;72.40;;;;;;5511850;25;19928;-96
2024/04/08 18:33:52;;;;;;;;;;;16.10;72.90;;;;;;5497113;21;19959;-93
2024/04/08 18:36:18;;;;;;;;;;;16.20;72.90;;;;;;5329539;27;20292;-93
2024/04/08 18:38:44;;;;;;;;;;;16.30;73.00;;;;;;5330270;27;19930;-95
2024/04/08 18:41:10;;;;;;;;;;;16.40;73.00;;;;;;5329999;27;19937;-94
2024/04/08 18:43:37;;;;;;;;;;;16.50;73.00;;;;;;5330144;27;19930;-93
2024/04/08 18:46:03;;;;;;;;;;;16.50;72.90;;;;;;5336614;27;20460;-96
2024/04/08 18:48:30;;;;;;;;;;;16.60;72.90;;;;;;5343141;27;19938;-92
2024/04/08 18:50:55;;;;;;;;;;;16.60;72.80;;;;;;5321546;26;19950;-90
2024/04/08 18:53:20;;;;;;;;;;;16.60;72.70;;;;;;5332164;26;20355;-94
2024/04/08 18:55:46;;;;;;;;;;;16.60;72.70;;;;;;5332296;26;19937;-94
2024/04/08 18:58:12;;;;;;;;;;;16.60;72.70;;;;;;5338278;26;19929;-96
2024/04/08 19:00:37;;;;;;;;;;;16.60;72.70;;;;;;5337777;26;19937;-95
2024/04/08 19:03:03;;;;;;;;;;;16.60;72.80;;;;;;5341358;26;19931;-88
2024/04/08 19:05:29;;;;;;;;;;;16.50;72.80;;;;;;5345322;26;20288;-88
2024/04/08 19:07:55;;;;;;;;;;;16.50;72.90;;;;;;5331289;26;19938;-89
2024/04/08 19:10:20;;;;;;;;;;;16.50;73.00;;;;;;5330470;26;20541;-90
2024/04/08 19:12:49;;;;;;;;;;;16.50;72.90;;;;;;5329846;26;19938;-93
2024/04/08 19:15:15;;;;;;;;;;;16.50;73.10;;;;;;5342702;27;19931;-95
2024/04/08 19:17:40;;;;;;;;;;;16.40;72.90;;;;;;5334541;26;19938;-95
2024/04/08 19:20:06;;;;;;;;;;;16.40;72.90;;;;;;5334165;27;19938;-96
2024/04/08 19:22:31;;;;;;;;;;;16.40;72.90;;;;;;5303560;27;19967;-95
2024/04/08 19:24:57;;;;;;;;;;;16.30;72.90;;;;;;5338435;26;19930;-94
2024/04/08 19:27:23;;;;;;;;;;;16.30;73.00;;;;;;5347387;26;19949;-95
2024/04/08 19:29:48;;;;;;;;;;;16.20;73.10;;;;;;5364376;26;19929;-93
2024/04/08 19:38:32;;;;;;;;;;;16.00;71.70;;;;;;5458204;26;19925;-87
2024/04/08 19:41:02;;;;;;;;;;;15.90;72.20;;;;;;5447297;26;19955;-95
2024/04/08 19:43:28;;;;;;;;;;;15.80;72.60;;;;;;5461676;26;19929;-93
2024/04/08 19:45:54;;;;;;;;;;;15.70;72.80;;;;;;5431729;26;19929;-96
2024/04/08 19:48:19;;;;;;;;;;;15.70;73.00;;;;;;5438079;26;20408;-90
2024/04/08 19:50:45;;;;;;;;;;;15.70;73.20;;;;;;5444533;26;20389;-94
2024/04/08 19:53:10;;;;;;;;;;;15.60;73.30;;;;;;5420866;26;19929;-96
2024/04/08 19:55:36;;;;;;;;;;;15.50;73.40;;;;;;5436189;26;19930;-95
2024/04/08 19:58:01;;;;;;;;;;;15.50;73.50;;;;;;5423437;26;19929;-89
2024/04/08 20:00:27;;;;;;;;;;;15.40;73.70;;;;;;5420819;26;19937;-95
2024/04/08 20:02:56;;;;;;;;;;;15.40;73.80;;;;;;5431799;26;19929;-89
2024/04/08 20:05:21;;;;;;;;;;;15.30;73.90;;;;;;5410074;26;19936;-88
2024/04/08 20:07:47;;;;;;;;;;;15.30;74.00;;;;;;5428471;26;19932;-96
